createdAt,value
2023-03-10T00:01:11.968Z,1.80
2023-03-10T00:03:40.997Z,1.40
2023-03-10T00:06:09.388Z,1.20
2023-03-10T00:08:40.246Z,1.30
2023-03-10T00:11:07.777Z,1.20
2023-03-10T00:13:35.482Z,1.20
2023-03-10T00:16:02.723Z,1.20
2023-03-10T00:18:29.782Z,1.20
2023-03-10T00:20:59.018Z,1.00
2023-03-10T00:23:26.458Z,1.33
2023-03-10T00:25:55.551Z,1.17
2023-03-10T00:28:23.104Z,1.00
2023-03-10T00:31:01.716Z,0.90
2023-03-10T00:33:30.872Z,1.20
2023-03-10T00:36:08.672Z,1.30
2023-03-10T00:38:37.151Z,0.90
2023-03-10T00:41:07.306Z,0.90
2023-03-10T00:43:36.311Z,0.80
2023-03-10T00:46:03.973Z,1.40
2023-03-10T00:48:31.829Z,1.10
2023-03-10T00:50:59.290Z,1.30
2023-03-10T00:53:28.230Z,1.03
2023-03-10T00:56:01.056Z,1.00
2023-03-10T00:58:29.427Z,0.90
2023-03-10T01:00:57.880Z,0.90
2023-03-10T01:03:26.226Z,1.03
2023-03-10T01:05:54.648Z,1.03
2023-03-10T01:08:22.936Z,1.30
2023-03-10T01:10:52.160Z,1.10
2023-03-10T01:13:19.855Z,1.13
2023-03-10T01:15:51.420Z,1.20
2023-03-10T01:18:20.860Z,1.10
2023-03-10T01:20:49.198Z,1.30
2023-03-10T01:23:19.776Z,1.03
2023-03-10T01:25:47.205Z,1.27
2023-03-10T01:28:17.013Z,1.17
2023-03-10T01:30:44.682Z,1.20
2023-03-10T01:33:13.100Z,1.20
2023-03-10T01:35:41.227Z,0.97
2023-03-10T01:38:09.241Z,1.23
2023-03-10T01:40:37.663Z,1.13
2023-03-10T01:43:28.707Z,1.30
2023-03-10T01:46:49.124Z,1.13
2023-03-10T01:49:24.396Z,1.30
2023-03-10T01:51:57.619Z,0.80
2023-03-10T01:54:29.176Z,1.13
2023-03-10T01:56:57.929Z,1.50
2023-03-10T01:59:27.963Z,0.97
2023-03-10T02:01:57.487Z,1.30
2023-03-10T02:04:34.176Z,1.10
2023-03-10T02:07:04.280Z,1.20
2023-03-10T02:09:34.083Z,0.97
2023-03-10T02:12:03.638Z,1.00
2023-03-10T02:14:32.742Z,1.00
2023-03-10T02:17:00.035Z,0.97
2023-03-10T02:19:51.457Z,1.00
2023-03-10T02:22:18.540Z,1.33
2023-03-10T02:24:50.837Z,1.20
2023-03-10T02:27:24.523Z,1.20
2023-03-10T02:30:00.158Z,1.77
2023-03-10T02:32:31.358Z,1.13
2023-03-10T02:34:58.489Z,1.00
2023-03-10T02:37:30.482Z,1.10
2023-03-10T02:39:57.556Z,0.90
2023-03-10T02:42:30.553Z,0.77
2023-03-10T02:44:58.462Z,0.90
2023-03-10T02:47:25.955Z,1.10
2023-03-10T02:49:52.988Z,0.90
2023-03-10T02:52:29.856Z,1.10
2023-03-10T02:54:57.087Z,1.10
2023-03-10T02:57:25.953Z,1.40
2023-03-10T02:59:52.984Z,1.00
2023-03-10T03:02:20.192Z,1.10
2023-03-10T03:04:47.617Z,1.13
2023-03-10T03:07:14.637Z,1.27
2023-03-10T03:09:42.111Z,1.20
2023-03-10T03:12:09.999Z,1.00
2023-03-10T03:14:38.806Z,1.20
2023-03-10T03:17:05.888Z,1.27
2023-03-10T03:19:33.354Z,1.33
2023-03-10T03:22:01.144Z,1.30
2023-03-10T03:24:28.878Z,0.90
2023-03-10T03:26:55.787Z,1.10
2023-03-10T03:29:22.727Z,1.37
2023-03-10T03:31:52.566Z,1.23
2023-03-10T03:34:21.242Z,1.00
2023-03-10T03:36:48.828Z,1.57
2023-03-10T03:39:17.422Z,1.07
2023-03-10T03:44:29.616Z,1.50
2023-03-10T03:46:58.482Z,1.40
2023-03-10T03:49:25.432Z,1.43
2023-03-10T03:51:52.923Z,1.40
2023-03-10T03:54:20.434Z,1.50
2023-03-10T03:56:47.416Z,1.50
2023-03-10T03:59:14.823Z,1.90
2023-03-10T04:01:41.812Z,2.67
2023-03-10T04:06:54.935Z,1.53
2023-03-10T04:09:21.874Z,1.67
2023-03-10T04:11:49.311Z,1.90
2023-03-10T04:14:16.289Z,1.30
2023-03-10T04:16:44.809Z,2.87
2023-03-10T04:19:13.766Z,5.10
2023-03-10T04:21:41.340Z,2.93
2023-03-10T04:24:09.090Z,1.80
2023-03-10T04:26:36.052Z,1.40
2023-03-10T04:29:03.743Z,1.27
2023-03-10T04:31:31.237Z,1.17
2023-03-10T04:33:58.204Z,1.33
2023-03-10T04:36:26.492Z,1.70
2023-03-10T04:38:53.988Z,1.70
2023-03-10T04:41:20.953Z,1.53
2023-03-10T04:43:48.567Z,1.40
2023-03-10T04:46:16.185Z,1.50
2023-03-10T04:48:43.998Z,1.40
2023-03-10T04:51:12.943Z,1.47
2023-03-10T04:53:41.202Z,1.30
2023-03-10T04:56:09.637Z,1.20
2023-03-10T04:58:36.598Z,2.27
2023-03-10T05:01:09.273Z,2.70
2023-03-10T05:03:36.860Z,2.13
2023-03-10T05:06:05.048Z,4.37
2023-03-10T05:08:31.927Z,2.20
2023-03-10T05:11:00.197Z,1.77
2023-03-10T05:13:27.488Z,1.40
2023-03-10T05:15:55.838Z,1.73
2023-03-10T05:18:22.749Z,1.83
2023-03-10T05:20:55.033Z,1.77
2023-03-10T05:23:22.477Z,1.70
2023-03-10T05:25:50.007Z,2.03
2023-03-10T05:28:18.947Z,2.00
2023-03-10T05:30:45.871Z,7.67
2023-03-10T05:33:12.790Z,2.23
2023-03-10T05:35:39.834Z,2.00
2023-03-10T05:38:06.834Z,1.53
2023-03-10T05:40:34.319Z,1.60
2023-03-10T05:43:02.466Z,1.50
2023-03-10T05:45:30.727Z,1.80
2023-03-10T05:47:58.224Z,2.47
2023-03-10T05:50:26.247Z,1.80
2023-03-10T05:52:53.256Z,2.00
2023-03-10T05:55:21.994Z,1.97
2023-03-10T05:57:49.493Z,1.83
2023-03-10T06:00:17.786Z,2.13
2023-03-10T06:02:46.248Z,2.47
2023-03-10T06:05:13.701Z,1.90
2023-03-10T06:07:41.532Z,1.70
2023-03-10T06:10:10.757Z,1.97
2023-03-10T06:12:38.641Z,2.00
2023-03-10T06:15:07.589Z,2.40
2023-03-10T06:17:34.749Z,2.00
2023-03-10T06:20:04.504Z,2.73
2023-03-10T06:22:31.550Z,1.87
2023-03-10T06:24:58.451Z,2.00
2023-03-10T06:27:25.991Z,2.00
2023-03-10T06:29:52.999Z,1.87
2023-03-10T06:32:21.018Z,1.93
2023-03-10T06:34:48.121Z,2.40
2023-03-10T06:37:16.981Z,2.40
2023-03-10T06:39:44.135Z,2.30
2023-03-10T06:42:11.736Z,2.70
2023-03-10T06:44:39.242Z,2.20
2023-03-10T06:47:06.787Z,2.50
2023-03-10T06:49:34.391Z,2.90
2023-03-10T06:52:01.436Z,2.70
2023-03-10T06:54:29.775Z,3.23
2023-03-10T06:56:56.819Z,2.70
2023-03-10T06:59:24.421Z,2.30
2023-03-10T07:01:51.380Z,3.17
2023-03-10T07:04:18.995Z,2.43
2023-03-10T07:06:46.011Z,2.70
2023-03-10T07:09:13.706Z,2.63
2023-03-10T07:11:42.006Z,2.67
2023-03-10T07:14:09.517Z,2.50
2023-03-10T07:16:39.201Z,2.57
2023-03-10T07:19:06.452Z,2.03
2023-03-10T07:21:33.377Z,1.83
2023-03-10T07:24:00.281Z,1.60
2023-03-10T07:26:27.291Z,1.60
2023-03-10T07:28:55.661Z,1.27
2023-03-10T07:31:22.959Z,1.50
2023-03-10T07:33:50.497Z,1.40
2023-03-10T07:36:19.666Z,1.43
2023-03-10T07:38:47.022Z,1.20
2023-03-10T07:41:16.988Z,1.40
2023-03-10T07:43:44.121Z,1.07
2023-03-10T07:46:15.097Z,1.07
2023-03-10T07:48:44.010Z,1.33
2023-03-10T07:51:12.437Z,1.27
2023-03-10T07:53:39.858Z,1.30
2023-03-10T07:56:08.598Z,0.93
2023-03-10T07:58:35.939Z,1.20
2023-03-10T08:01:04.400Z,1.10
2023-03-10T08:03:34.270Z,1.20
2023-03-10T08:06:02.454Z,1.50
2023-03-10T08:08:30.115Z,1.00
2023-03-10T08:11:05.556Z,1.23
2023-03-10T08:13:33.882Z,0.90
2023-03-10T08:16:01.860Z,1.27
2023-03-10T08:18:30.331Z,1.50
2023-03-10T08:20:59.433Z,1.10
2023-03-10T08:23:27.000Z,1.50
2023-03-10T08:25:54.464Z,1.07
2023-03-10T08:28:21.536Z,1.00
2023-03-10T08:31:03.096Z,0.90
2023-03-10T08:33:31.634Z,1.03
2023-03-10T08:36:06.480Z,1.07
2023-03-10T08:38:34.058Z,1.13
2023-03-10T08:41:10.760Z,1.30
2023-03-10T08:43:38.059Z,1.10
2023-03-10T08:46:08.448Z,1.53
2023-03-10T08:48:36.083Z,1.47
2023-03-10T08:51:07.166Z,1.23
2023-03-10T08:53:36.590Z,1.10
2023-03-10T08:56:05.224Z,1.10
2023-03-10T08:58:32.745Z,1.40
2023-03-10T09:01:00.315Z,0.97
2023-03-10T09:03:29.594Z,0.90
2023-03-10T09:08:44.440Z,1.10
2023-03-10T09:11:12.500Z,2.03
2023-03-10T09:13:39.639Z,2.03
2023-03-10T09:18:54.423Z,1.10
2023-03-10T09:21:21.507Z,1.10
2023-03-10T09:23:53.122Z,1.13
2023-03-10T09:26:20.858Z,2.00
2023-03-10T09:28:49.638Z,2.50
2023-03-10T09:31:21.235Z,1.93
2023-03-10T09:33:48.891Z,1.10
2023-03-10T09:36:17.168Z,1.60
2023-03-10T09:47:57.484Z,1.67
2023-03-10T09:50:33.364Z,1.70
2023-03-10T09:53:09.784Z,1.53
2023-03-10T09:55:47.536Z,1.90
2023-03-10T09:58:30.991Z,1.40
2023-03-10T10:01:00.250Z,1.23
2023-03-10T10:03:51.584Z,1.37
2023-03-10T10:06:27.645Z,1.47
2023-03-10T10:09:04.612Z,1.00
2023-03-10T10:11:33.859Z,1.30
2023-03-10T10:14:27.818Z,1.00
2023-03-10T10:17:05.906Z,1.20
2023-03-10T10:19:36.746Z,1.00
2023-03-10T10:22:11.010Z,1.23
2023-03-10T10:24:38.774Z,1.20
2023-03-10T10:27:05.854Z,1.20
2023-03-10T10:29:36.621Z,1.10
2023-03-10T10:32:08.047Z,0.90
2023-03-10T10:34:37.015Z,1.00
2023-03-10T10:37:29.734Z,1.00
2023-03-10T10:39:59.081Z,1.30
2023-03-10T10:42:28.765Z,1.30
2023-03-10T10:45:00.740Z,1.40
2023-03-10T10:47:31.302Z,1.00
2023-03-10T10:50:19.253Z,1.27
2023-03-10T10:52:49.809Z,1.33
2023-03-10T10:55:28.260Z,1.20
2023-03-10T10:58:01.422Z,1.20
2023-03-10T11:00:33.384Z,1.10
2023-03-10T11:03:00.628Z,1.20
2023-03-10T11:05:36.504Z,1.23
2023-03-10T11:08:30.582Z,1.40
2023-03-10T11:11:01.516Z,1.40
2023-03-10T11:13:37.679Z,1.10
2023-03-10T11:16:14.533Z,1.33
2023-03-10T11:18:48.471Z,1.53
2023-03-10T11:21:23.721Z,1.30
2023-03-10T11:24:01.052Z,1.37
2023-03-10T11:26:42.928Z,1.30
2023-03-10T11:29:25.565Z,1.00
2023-03-10T11:32:01.065Z,1.07
2023-03-10T11:34:31.847Z,1.03
2023-03-10T11:37:09.509Z,1.00
2023-03-10T11:39:45.805Z,0.90
2023-03-10T11:42:25.186Z,1.40
2023-03-10T11:45:05.385Z,0.90
2023-03-10T11:47:50.149Z,0.90
2023-03-10T11:50:33.800Z,1.00
2023-03-10T11:53:05.678Z,0.90
2023-03-10T11:55:33.888Z,0.93
2023-03-10T11:58:04.041Z,0.70
2023-03-10T12:00:36.978Z,1.00
2023-03-10T12:03:17.402Z,1.20
2023-03-10T12:05:49.758Z,1.20
2023-03-10T12:08:20.235Z,1.20
2023-03-10T12:10:49.467Z,1.07
2023-03-10T12:13:23.879Z,1.13
2023-03-10T12:15:56.009Z,1.33
2023-03-10T12:18:26.859Z,0.90
2023-03-10T12:21:14.673Z,1.20
2023-03-10T12:23:43.107Z,1.07
2023-03-10T12:26:10.514Z,1.00
2023-03-10T12:28:37.643Z,1.00
2023-03-10T12:31:07.254Z,1.00
2023-03-10T12:33:49.201Z,1.87
2023-03-10T12:36:27.481Z,1.30
2023-03-10T12:38:59.335Z,1.10
2023-03-10T12:41:47.959Z,1.07
2023-03-10T12:44:46.507Z,0.90
2023-03-10T12:47:31.280Z,1.30
2023-03-10T12:50:06.220Z,1.47
2023-03-10T12:52:48.122Z,1.23
2023-03-10T12:55:19.143Z,1.00
2023-03-10T12:57:59.309Z,1.23
2023-03-10T13:03:31.275Z,1.40
2023-03-10T13:06:05.850Z,1.40
2023-03-10T13:08:43.582Z,1.13
2023-03-10T13:11:31.934Z,1.40
2023-03-10T13:14:04.253Z,1.10
2023-03-10T13:16:32.671Z,1.23
2023-03-10T13:21:47.376Z,0.90
2023-03-10T13:24:28.126Z,0.97
2023-03-10T13:27:07.400Z,0.80
2023-03-10T13:29:35.092Z,0.90
2023-03-10T13:32:02.254Z,0.90
2023-03-10T13:34:32.475Z,1.00
2023-03-10T13:37:06.156Z,0.90
2023-03-10T13:39:33.766Z,1.20
2023-03-10T13:42:02.613Z,1.10
2023-03-10T13:44:34.322Z,1.27
2023-03-10T13:47:04.455Z,0.80
2023-03-10T13:49:34.816Z,1.10
2023-03-10T13:52:06.697Z,0.93
2023-03-10T13:54:35.503Z,1.00
2023-03-10T13:57:11.569Z,1.00
2023-03-10T13:59:38.825Z,1.37
2023-03-10T14:02:17.737Z,2.23
2023-03-10T14:04:48.887Z,0.90
2023-03-10T14:07:20.079Z,1.10
2023-03-10T14:09:49.486Z,1.20
2023-03-10T14:15:26.913Z,1.20
2023-03-10T14:18:18.560Z,1.50
2023-03-10T14:20:47.291Z,1.10
2023-03-10T14:23:35.901Z,1.20
2023-03-10T14:26:13.639Z,1.13
2023-03-10T14:28:41.677Z,1.07
2023-03-10T14:31:21.549Z,1.17
2023-03-10T14:33:48.849Z,0.93
2023-03-10T14:36:16.230Z,1.10
2023-03-10T14:38:47.699Z,1.50
2023-03-10T14:41:15.292Z,0.87
2023-03-10T14:43:45.475Z,0.80
2023-03-10T14:46:13.705Z,0.90
2023-03-10T14:48:42.235Z,0.83
2023-03-10T14:51:17.831Z,0.83
2023-03-10T14:53:51.010Z,0.97
2023-03-10T14:56:20.816Z,0.90
2023-03-10T14:58:51.364Z,1.00
2023-03-10T15:01:20.729Z,1.13
2023-03-10T15:03:49.305Z,0.90
2023-03-10T15:06:19.414Z,1.30
2023-03-10T15:08:46.511Z,0.80
2023-03-10T15:11:17.446Z,0.70
2023-03-10T15:13:48.425Z,0.90
2023-03-10T15:16:15.711Z,0.70
2023-03-10T15:18:42.851Z,0.70
2023-03-10T15:21:10.388Z,0.90
2023-03-10T15:23:37.375Z,1.00
2023-03-10T15:26:09.870Z,0.63
2023-03-10T15:28:39.290Z,0.80
2023-03-10T15:33:51.403Z,1.17
2023-03-10T15:36:18.533Z,0.70
2023-03-10T15:38:45.570Z,0.80
2023-03-10T15:41:13.466Z,1.00
2023-03-10T15:43:41.731Z,1.43
2023-03-10T15:48:57.268Z,0.77
2023-03-10T15:51:24.433Z,0.80
2023-03-10T15:53:51.929Z,0.70
2023-03-10T15:56:18.950Z,0.60
2023-03-10T15:58:47.421Z,0.77
2023-03-10T16:04:05.820Z,0.97
2023-03-10T16:06:33.765Z,0.90
2023-03-10T16:09:01.290Z,0.80
2023-03-10T16:11:28.971Z,0.80
2023-03-10T16:13:57.373Z,0.70
2023-03-10T16:16:26.200Z,1.00
2023-03-10T16:18:53.752Z,0.93
2023-03-10T16:21:21.319Z,0.80
2023-03-10T16:23:48.934Z,1.00
2023-03-10T16:26:19.086Z,0.90
2023-03-10T16:28:48.081Z,0.80
2023-03-10T16:31:20.102Z,0.90
2023-03-10T16:33:49.548Z,1.13
2023-03-10T16:36:19.392Z,1.70
2023-03-10T16:38:46.720Z,1.10
2023-03-10T16:41:14.448Z,0.90
2023-03-10T16:43:42.949Z,1.10
2023-03-10T16:46:12.613Z,1.77
2023-03-10T16:48:43.260Z,0.83
2023-03-10T16:51:27.921Z,1.10
2023-03-10T16:53:57.767Z,1.00
2023-03-10T16:56:26.573Z,1.00
2023-03-10T16:58:53.863Z,1.40
2023-03-10T17:01:22.693Z,1.50
2023-03-10T17:03:51.877Z,1.27
2023-03-10T17:06:23.221Z,1.20
2023-03-10T17:08:51.537Z,1.37
2023-03-10T17:11:21.371Z,1.43
2023-03-10T17:13:49.665Z,0.80
2023-03-10T17:16:18.421Z,1.20
2023-03-10T17:18:45.881Z,1.00
2023-03-10T17:21:18.002Z,1.40
2023-03-10T17:23:46.009Z,1.33
2023-03-10T17:26:14.265Z,1.00
2023-03-10T17:28:43.070Z,1.00
2023-03-10T17:31:12.722Z,1.13
2023-03-10T17:33:41.346Z,1.10
2023-03-10T17:36:12.239Z,1.00
2023-03-10T17:38:41.467Z,0.80
2023-03-10T17:41:10.565Z,1.07
2023-03-10T17:43:38.906Z,1.07
2023-03-10T17:46:08.551Z,0.97
2023-03-10T17:48:36.584Z,0.93
2023-03-10T17:51:04.976Z,0.90
2023-03-10T17:53:32.810Z,0.80
2023-03-10T17:56:05.561Z,0.83
2023-03-10T17:58:32.876Z,1.17
2023-03-10T18:01:06.439Z,0.83
2023-03-10T18:03:35.781Z,1.00
2023-03-10T18:06:04.764Z,1.10
2023-03-10T18:08:31.757Z,0.93
2023-03-10T18:11:06.355Z,0.87
2023-03-10T18:13:33.789Z,1.07
2023-03-10T18:16:01.292Z,1.33
2023-03-10T18:18:28.447Z,1.00
2023-03-10T18:20:55.565Z,0.90
2023-03-10T18:23:23.280Z,0.90
2023-03-10T18:25:51.645Z,0.70
2023-03-10T18:28:23.050Z,0.70
2023-03-10T18:30:52.455Z,0.70
2023-03-10T18:33:19.645Z,0.70
2023-03-10T18:35:47.260Z,1.00
2023-03-10T18:38:15.988Z,1.13
2023-03-10T18:40:44.217Z,1.30
2023-03-10T18:43:11.389Z,0.95
2023-03-10T18:45:41.312Z,1.10
2023-03-10T18:48:08.266Z,0.90
2023-03-10T18:50:35.378Z,0.90
2023-03-10T18:53:02.383Z,1.00
2023-03-10T18:55:29.601Z,1.10
2023-03-10T18:57:57.173Z,1.27
2023-03-10T19:00:25.568Z,1.13
2023-03-10T19:02:54.339Z,1.30
2023-03-10T19:05:21.999Z,1.40
2023-03-10T19:07:49.029Z,1.20
2023-03-10T19:10:18.203Z,1.37
2023-03-10T19:12:45.241Z,1.20
2023-03-10T19:15:15.687Z,1.20
2023-03-10T19:17:43.425Z,1.80
2023-03-10T19:20:14.938Z,1.80
2023-03-10T19:22:42.332Z,3.63
2023-03-10T19:25:12.090Z,2.00
2023-03-10T19:27:40.601Z,2.72
2023-03-10T19:30:11.016Z,2.55
2023-03-10T19:32:39.211Z,2.00
2023-03-10T19:35:08.868Z,2.47
2023-03-10T19:37:38.652Z,2.20
2023-03-10T19:40:09.634Z,2.25
2023-03-10T19:42:38.783Z,2.05
2023-03-10T19:45:08.138Z,2.30
2023-03-10T19:47:35.225Z,3.55
2023-03-10T19:50:02.863Z,2.42
2023-03-10T19:52:29.935Z,1.98
2023-03-10T19:54:58.982Z,1.75
2023-03-10T19:57:26.128Z,2.40
2023-03-10T19:59:53.352Z,2.05
2023-03-10T20:02:21.142Z,2.10
2023-03-10T20:04:48.975Z,2.67
2023-03-10T20:07:16.001Z,2.05
2023-03-10T20:09:42.975Z,2.25
2023-03-10T20:12:11.486Z,2.28
2023-03-10T20:14:38.581Z,1.95
2023-03-10T20:17:06.158Z,2.28
2023-03-10T20:19:33.711Z,1.90
2023-03-10T20:22:01.313Z,2.40
2023-03-10T20:24:28.829Z,2.08
2023-03-10T20:26:58.330Z,2.33
2023-03-10T20:29:26.797Z,2.50
2023-03-10T20:31:54.186Z,2.40
2023-03-10T20:34:22.106Z,2.17
2023-03-10T20:36:49.334Z,1.80
2023-03-10T20:39:17.070Z,1.85
2023-03-10T20:41:45.151Z,1.70
2023-03-10T20:44:14.620Z,2.53
2023-03-10T20:46:43.992Z,2.20
2023-03-10T20:49:12.105Z,2.08
2023-03-10T20:51:40.158Z,1.83
2023-03-10T20:54:08.555Z,2.10
2023-03-10T20:56:35.902Z,1.73
2023-03-10T20:59:04.415Z,1.80
2023-03-10T21:01:32.118Z,2.25
2023-03-10T21:04:00.844Z,2.00
2023-03-10T21:06:27.846Z,1.90
2023-03-10T21:08:55.651Z,1.95
2023-03-10T21:11:22.737Z,1.75
2023-03-10T21:13:50.828Z,2.15
2023-03-10T21:16:20.295Z,1.73
2023-03-10T21:18:47.756Z,1.85
2023-03-10T21:21:16.179Z,2.33
2023-03-10T21:23:43.439Z,1.75
2023-03-10T21:26:12.258Z,1.60
2023-03-10T21:28:39.919Z,1.50
2023-03-10T21:31:07.085Z,1.70
2023-03-10T21:33:34.353Z,1.92
2023-03-10T21:36:02.549Z,1.55
2023-03-10T21:38:31.251Z,1.27
2023-03-10T21:40:58.344Z,2.15
2023-03-10T21:43:27.686Z,1.70
2023-03-10T21:45:55.195Z,1.40
2023-03-10T21:48:22.207Z,1.23
2023-03-10T21:50:49.259Z,1.80
2023-03-10T21:53:16.641Z,1.42
2023-03-10T21:55:45.182Z,1.55
2023-03-10T21:58:12.169Z,1.88
2023-03-10T22:00:39.136Z,1.65
2023-03-10T22:03:06.688Z,1.60
2023-03-10T22:05:33.753Z,1.48
2023-03-10T22:08:01.249Z,1.75
2023-03-10T22:10:28.364Z,1.60
2023-03-10T22:12:57.525Z,1.42
2023-03-10T22:15:27.334Z,1.88
2023-03-10T22:20:40.047Z,1.83
2023-03-10T22:23:08.297Z,1.33
2023-03-10T22:25:35.401Z,1.70
2023-03-10T22:28:04.793Z,1.30
2023-03-10T22:30:32.322Z,1.38
2023-03-10T22:32:59.270Z,1.17
2023-03-10T22:35:26.731Z,1.77
2023-03-10T22:37:54.683Z,1.30
2023-03-10T22:40:24.028Z,1.42
2023-03-10T22:42:51.363Z,1.60
2023-03-10T22:45:24.197Z,1.30
2023-03-10T22:47:54.588Z,1.42
2023-03-10T22:50:25.157Z,1.30
2023-03-10T22:52:52.552Z,1.25
2023-03-10T22:55:24.726Z,1.50
2023-03-10T22:57:52.804Z,1.40
2023-03-10T23:00:22.996Z,1.33
2023-03-10T23:02:52.208Z,1.50
2023-03-10T23:05:20.717Z,1.35
2023-03-10T23:07:48.706Z,1.00
2023-03-10T23:10:19.430Z,1.20
2023-03-10T23:12:46.911Z,1.00
2023-03-10T23:15:24.727Z,1.50
2023-03-10T23:17:54.839Z,1.35
2023-03-10T23:20:23.990Z,1.20
2023-03-10T23:22:51.222Z,1.15
2023-03-10T23:25:21.985Z,1.30
2023-03-10T23:27:48.982Z,1.20
2023-03-10T23:30:17.582Z,1.40
2023-03-10T23:32:47.415Z,1.55
2023-03-10T23:35:19.891Z,1.08
2023-03-10T23:37:46.842Z,1.20
2023-03-10T23:40:16.992Z,1.15
2023-03-10T23:42:44.552Z,1.20
2023-03-10T23:45:15.246Z,1.17
2023-03-10T23:47:43.107Z,1.10
2023-03-10T23:50:19.057Z,1.08
2023-03-10T23:52:46.425Z,1.40
2023-03-10T23:55:15.684Z,1.20
2023-03-10T23:57:43.230Z,1.20
